createdAt,value
2023-04-09T00:00:49.262Z,11.36
2023-04-09T00:03:20.919Z,11.37
2023-04-09T00:05:49.631Z,11.43
2023-04-09T00:08:17.038Z,11.48
2023-04-09T00:10:47.124Z,11.20
2023-04-09T00:13:17.000Z,11.15
2023-04-09T00:15:47.963Z,10.82
2023-04-09T00:18:19.150Z,10.89
2023-04-09T00:20:46.648Z,10.91
2023-04-09T00:23:14.076Z,10.95
2023-04-09T00:25:41.945Z,10.87
2023-04-09T00:28:09.379Z,10.85
2023-04-09T00:30:37.924Z,10.81
2023-04-09T00:33:06.222Z,10.88
2023-04-09T00:35:34.360Z,10.95
2023-04-09T00:38:01.790Z,10.76
2023-04-09T00:40:29.461Z,10.97
2023-04-09T00:42:57.354Z,10.98
2023-04-09T00:45:24.992Z,10.68
2023-04-09T00:47:53.537Z,10.74
2023-04-09T00:50:21.931Z,10.78
2023-04-09T00:52:50.746Z,10.83
2023-04-09T00:55:18.866Z,10.84
2023-04-09T00:57:46.981Z,10.90
2023-04-09T01:00:15.527Z,10.89
2023-04-09T01:02:53.264Z,10.77
2023-04-09T01:05:21.816Z,10.83
2023-04-09T01:08:14.678Z,10.83
2023-04-09T01:10:48.009Z,10.85
2023-04-09T01:13:35.402Z,10.96
2023-04-09T01:16:03.941Z,11.00
2023-04-09T01:18:38.542Z,11.08
2023-04-09T01:21:19.407Z,11.09
2023-04-09T01:24:08.854Z,11.08
2023-04-09T01:27:03.299Z,11.08
2023-04-09T01:29:33.899Z,11.07
2023-04-09T01:32:06.025Z,11.07
2023-04-09T01:34:36.737Z,11.10
2023-04-09T01:37:05.602Z,11.13
2023-04-09T01:39:33.339Z,10.98
2023-04-09T01:42:03.960Z,11.03
2023-04-09T01:44:32.723Z,11.11
2023-04-09T01:47:01.631Z,11.03
2023-04-09T01:49:29.858Z,10.97
2023-04-09T01:51:57.774Z,11.03
2023-04-09T01:54:25.348Z,11.08
2023-04-09T01:56:52.797Z,11.00
2023-04-09T01:59:22.902Z,10.98
2023-04-09T02:01:55.368Z,11.12
2023-04-09T02:04:41.689Z,11.04
2023-04-09T02:07:14.808Z,11.13
2023-04-09T02:09:46.468Z,11.30
2023-04-09T02:12:17.708Z,11.26
2023-04-09T02:14:52.423Z,11.38
2023-04-09T02:17:20.254Z,11.34
2023-04-09T02:19:48.305Z,11.26
2023-04-09T02:22:17.378Z,11.11
2023-04-09T02:24:46.992Z,11.10
2023-04-09T02:27:14.595Z,11.09
2023-04-09T02:29:43.746Z,11.13
2023-04-09T02:32:11.628Z,11.14
2023-04-09T02:34:44.427Z,11.16
2023-04-09T02:37:11.847Z,11.16
2023-04-09T02:39:39.439Z,11.19
2023-04-09T02:42:09.754Z,11.26
2023-04-09T02:44:38.019Z,11.30
2023-04-09T02:47:09.338Z,11.35
2023-04-09T02:49:37.998Z,11.40
2023-04-09T02:52:05.735Z,11.46
2023-04-09T02:54:33.343Z,11.45
2023-04-09T02:57:01.706Z,11.40
2023-04-09T02:59:29.501Z,11.42
2023-04-09T03:01:57.025Z,11.41
2023-04-09T03:04:24.588Z,11.48
2023-04-09T03:06:51.989Z,11.45
2023-04-09T03:09:27.574Z,11.53
2023-04-09T03:11:57.400Z,11.59
2023-04-09T03:14:25.113Z,11.52
2023-04-09T03:16:56.135Z,11.50
2023-04-09T03:19:23.537Z,11.48
2023-04-09T03:21:51.488Z,11.46
2023-04-09T03:24:18.955Z,11.30
2023-04-09T03:26:46.470Z,11.03
2023-04-09T03:29:17.203Z,11.00
2023-04-09T03:31:45.768Z,11.00
2023-04-09T03:34:13.242Z,11.00
2023-04-09T03:36:40.685Z,11.03
2023-04-09T03:39:08.206Z,11.21
2023-04-09T03:41:35.884Z,11.14
2023-04-09T03:44:03.779Z,11.12
2023-04-09T03:46:31.651Z,11.17
2023-04-09T03:48:59.455Z,11.27
2023-04-09T03:51:27.339Z,11.30
2023-04-09T03:53:56.818Z,11.41
2023-04-09T03:56:24.280Z,11.50
2023-04-09T03:58:51.970Z,11.56
2023-04-09T04:01:19.661Z,11.49
2023-04-09T04:03:47.130Z,11.50
2023-04-09T04:06:18.905Z,11.38
2023-04-09T04:08:46.657Z,11.53
2023-04-09T04:11:14.048Z,11.45
2023-04-09T04:13:47.944Z,11.56
2023-04-09T04:16:16.140Z,11.50
2023-04-09T04:18:43.551Z,11.59
2023-04-09T04:21:15.835Z,11.54
2023-04-09T04:23:54.819Z,11.62
2023-04-09T04:26:25.046Z,11.69
2023-04-09T04:28:53.257Z,11.74
2023-04-09T04:31:20.779Z,11.75
2023-04-09T04:33:48.342Z,11.74
2023-04-09T04:36:16.141Z,11.69
2023-04-09T04:38:45.656Z,11.72
2023-04-09T04:41:13.429Z,11.84
2023-04-09T04:43:41.614Z,11.80
2023-04-09T04:46:09.202Z,12.00
2023-04-09T04:48:37.110Z,11.88
2023-04-09T04:51:04.947Z,11.95
2023-04-09T04:53:32.464Z,12.12
2023-04-09T04:55:59.903Z,11.95
2023-04-09T04:58:27.307Z,12.19
2023-04-09T05:00:54.997Z,12.21
2023-04-09T05:03:23.250Z,12.25
2023-04-09T05:05:52.046Z,12.39
2023-04-09T05:08:19.619Z,12.56
2023-04-09T05:10:48.031Z,12.72
2023-04-09T05:13:16.940Z,12.72
2023-04-09T05:15:44.352Z,12.78
2023-04-09T05:18:12.271Z,12.69
2023-04-09T05:20:39.649Z,12.76
2023-04-09T05:23:10.250Z,12.87
2023-04-09T05:25:41.549Z,12.81
2023-04-09T05:28:11.471Z,12.72
2023-04-09T05:30:38.878Z,12.55
2023-04-09T05:33:06.944Z,12.61
2023-04-09T05:35:39.086Z,12.58
2023-04-09T05:38:06.639Z,12.53
2023-04-09T05:40:35.530Z,12.52
2023-04-09T05:43:03.105Z,12.46
2023-04-09T05:45:33.111Z,12.39
2023-04-09T05:48:02.358Z,12.15
2023-04-09T05:50:30.138Z,12.25
2023-04-09T05:53:00.976Z,12.29
2023-04-09T05:55:28.441Z,12.26
2023-04-09T05:57:55.898Z,12.34
2023-04-09T06:00:25.109Z,12.33
2023-04-09T06:02:53.060Z,12.15
2023-04-09T06:05:20.492Z,12.27
2023-04-09T06:07:52.617Z,12.35
2023-04-09T06:10:20.346Z,12.55
2023-04-09T06:12:47.907Z,12.62
2023-04-09T06:15:17.385Z,12.55
2023-04-09T06:17:46.546Z,12.81
2023-04-09T06:20:14.432Z,12.58
2023-04-09T06:22:42.134Z,12.91
2023-04-09T06:25:10.049Z,12.75
2023-04-09T06:27:37.542Z,12.78
2023-04-09T06:30:08.509Z,12.79
2023-04-09T06:32:46.825Z,12.98
2023-04-09T06:35:18.660Z,12.85
2023-04-09T06:37:46.586Z,12.74
2023-04-09T06:40:14.843Z,12.89
2023-04-09T06:42:42.230Z,13.06
2023-04-09T06:45:10.384Z,13.04
2023-04-09T06:47:37.913Z,13.01
2023-04-09T06:50:08.266Z,13.11
2023-04-09T06:52:35.985Z,13.09
2023-04-09T06:55:03.443Z,13.28
2023-04-09T06:57:32.502Z,13.22
2023-04-09T07:00:00.190Z,13.33
2023-04-09T07:02:47.686Z,13.45
2023-04-09T07:05:15.552Z,13.42
2023-04-09T07:07:43.312Z,13.50
2023-04-09T07:10:12.682Z,13.57
2023-04-09T07:12:41.201Z,13.60
2023-04-09T07:15:09.411Z,13.82
2023-04-09T07:17:36.986Z,13.95
2023-04-09T07:20:05.515Z,13.91
2023-04-09T07:22:33.217Z,13.77
2023-04-09T07:25:10.131Z,13.80
2023-04-09T07:27:38.237Z,13.97
2023-04-09T07:30:06.250Z,14.18
2023-04-09T07:32:33.988Z,14.47
2023-04-09T07:35:03.335Z,14.40
2023-04-09T07:37:32.161Z,14.26
2023-04-09T07:39:59.602Z,14.34
2023-04-09T07:42:27.476Z,14.42
2023-04-09T07:44:54.987Z,14.56
2023-04-09T07:47:24.410Z,14.50
2023-04-09T07:49:53.205Z,14.44
2023-04-09T07:52:21.025Z,14.25
2023-04-09T07:54:48.394Z,14.49
2023-04-09T07:57:16.107Z,14.18
2023-04-09T07:59:43.644Z,14.30
2023-04-09T08:02:15.423Z,14.27
2023-04-09T08:04:43.332Z,14.35
2023-04-09T08:07:11.558Z,14.47
2023-04-09T08:09:41.104Z,14.53
2023-04-09T08:12:08.642Z,14.40
2023-04-09T08:14:41.433Z,14.63
2023-04-09T08:17:10.681Z,14.29
2023-04-09T08:19:41.895Z,14.80
2023-04-09T08:22:13.639Z,14.69
2023-04-09T08:24:43.440Z,15.01
2023-04-09T08:27:11.206Z,15.19
2023-04-09T08:29:42.717Z,15.43
2023-04-09T08:32:10.752Z,15.67
2023-04-09T08:34:38.181Z,15.71
2023-04-09T08:37:06.446Z,15.69
2023-04-09T08:39:34.329Z,16.09
2023-04-09T08:42:02.723Z,15.86
2023-04-09T08:44:30.797Z,15.59
2023-04-09T08:47:00.591Z,15.82
2023-04-09T08:49:28.063Z,15.80
2023-04-09T08:51:55.855Z,15.90
2023-04-09T08:54:26.754Z,15.89
2023-04-09T08:56:54.427Z,16.14
2023-04-09T08:59:22.083Z,16.28
2023-04-09T09:02:06.606Z,15.91
2023-04-09T09:04:51.009Z,15.96
2023-04-09T09:07:19.421Z,15.72
2023-04-09T09:09:58.056Z,15.78
2023-04-09T09:12:41.623Z,16.11
2023-04-09T09:15:30.018Z,16.09
2023-04-09T09:18:00.776Z,16.13
2023-04-09T09:20:29.370Z,15.99
2023-04-09T09:22:57.794Z,16.12
2023-04-09T09:25:26.391Z,16.15
2023-04-09T09:27:55.432Z,16.10
2023-04-09T09:30:27.656Z,16.39
2023-04-09T09:33:13.550Z,16.13
2023-04-09T09:35:51.576Z,16.39
2023-04-09T09:38:19.155Z,16.14
2023-04-09T09:40:50.372Z,16.37
2023-04-09T09:43:19.314Z,16.37
2023-04-09T09:45:48.077Z,16.40
2023-04-09T09:48:18.069Z,16.76
2023-04-09T09:50:49.031Z,16.49
2023-04-09T09:53:23.095Z,16.47
2023-04-09T09:55:57.309Z,16.39
2023-04-09T09:58:33.766Z,16.38
2023-04-09T10:01:03.562Z,16.09
2023-04-09T10:03:34.936Z,15.70
2023-04-09T10:06:03.468Z,15.24
2023-04-09T10:08:33.523Z,15.21
2023-04-09T10:11:01.723Z,15.16
2023-04-09T10:13:34.307Z,14.93
2023-04-09T10:16:02.931Z,14.88
2023-04-09T10:18:34.885Z,14.84
2023-04-09T10:21:27.428Z,14.64
2023-04-09T10:23:58.491Z,14.66
2023-04-09T10:26:31.039Z,14.47
2023-04-09T10:29:09.775Z,14.60
2023-04-09T10:31:55.454Z,14.51
2023-04-09T10:34:28.182Z,14.28
2023-04-09T10:36:57.639Z,14.35
2023-04-09T10:39:32.098Z,14.15
2023-04-09T10:42:12.025Z,14.06
2023-04-09T10:44:42.816Z,13.87
2023-04-09T10:47:33.797Z,13.68
2023-04-09T10:50:44.802Z,13.54
2023-04-09T10:53:24.169Z,13.57
2023-04-09T10:56:01.544Z,13.59
2023-04-09T10:58:37.760Z,13.61
2023-04-09T11:01:08.803Z,13.67
2023-04-09T11:03:46.398Z,13.55
2023-04-09T11:06:20.841Z,13.64
2023-04-09T11:08:51.032Z,13.71
2023-04-09T11:11:26.871Z,13.63
2023-04-09T11:14:01.789Z,13.63
2023-04-09T11:16:36.828Z,13.63
2023-04-09T11:19:05.070Z,13.76
2023-04-09T11:21:47.051Z,14.06
2023-04-09T11:24:15.955Z,14.15
2023-04-09T11:26:43.610Z,14.01
2023-04-09T11:29:13.697Z,14.01
2023-04-09T11:31:47.107Z,14.18
2023-04-09T11:34:34.420Z,13.96
2023-04-09T11:37:07.132Z,13.92
2023-04-09T11:39:38.149Z,14.13
2023-04-09T11:42:05.940Z,14.03
2023-04-09T11:44:33.350Z,14.16
2023-04-09T11:47:13.802Z,13.83
2023-04-09T11:49:47.317Z,13.93
2023-04-09T11:52:18.789Z,13.82
2023-04-09T11:54:54.156Z,14.08
2023-04-09T11:57:43.712Z,14.34
2023-04-09T12:00:17.081Z,14.28
2023-04-09T12:03:04.229Z,14.35
2023-04-09T12:05:51.133Z,14.57
2023-04-09T12:08:23.967Z,14.85
2023-04-09T12:11:07.432Z,15.37
2023-04-09T12:13:44.604Z,15.39
2023-04-09T12:16:13.464Z,15.58
2023-04-09T12:19:08.531Z,15.45
2023-04-09T12:21:58.569Z,15.85
2023-04-09T12:24:28.260Z,16.02
2023-04-09T12:27:02.894Z,15.88
2023-04-09T12:29:30.764Z,16.06
2023-04-09T12:31:58.901Z,15.87
2023-04-09T12:34:27.413Z,15.77
2023-04-09T12:37:05.036Z,15.77
2023-04-09T12:39:34.516Z,15.59
2023-04-09T12:42:04.528Z,15.66
2023-04-09T12:44:37.434Z,15.42
2023-04-09T12:47:04.870Z,15.51
2023-04-09T12:49:33.139Z,15.31
2023-04-09T12:52:01.712Z,15.32
2023-04-09T12:54:31.541Z,15.20
2023-04-09T12:56:58.966Z,15.17
2023-04-09T12:59:26.487Z,14.89
2023-04-09T13:01:56.745Z,14.96
2023-04-09T13:04:26.708Z,14.85
2023-04-09T13:06:59.194Z,15.16
2023-04-09T13:09:26.641Z,14.90
2023-04-09T13:12:03.833Z,15.01
2023-04-09T13:14:31.703Z,14.81
2023-04-09T13:17:00.162Z,14.60
2023-04-09T13:19:31.297Z,14.86
2023-04-09T13:21:58.659Z,14.66
2023-04-09T13:24:27.595Z,14.69
2023-04-09T13:26:58.428Z,14.68
2023-04-09T13:29:32.026Z,14.67
2023-04-09T13:32:11.305Z,14.55
2023-04-09T13:34:40.865Z,14.46
2023-04-09T13:37:08.695Z,14.37
2023-04-09T13:39:39.352Z,14.51
2023-04-09T13:42:13.720Z,14.34
2023-04-09T13:44:44.855Z,14.58
2023-04-09T13:47:13.754Z,14.38
2023-04-09T13:49:42.520Z,14.18
2023-04-09T13:52:11.902Z,14.14
2023-04-09T13:54:40.550Z,14.20
2023-04-09T13:57:08.063Z,14.04
2023-04-09T13:59:38.209Z,14.16
2023-04-09T14:02:05.732Z,13.98
2023-04-09T14:04:33.457Z,14.06
2023-04-09T14:07:01.914Z,13.99
2023-04-09T14:09:30.357Z,13.79
2023-04-09T14:11:59.701Z,13.97
2023-04-09T14:14:29.996Z,13.86
2023-04-09T14:16:57.653Z,13.97
2023-04-09T14:19:25.132Z,13.85
2023-04-09T14:21:55.732Z,13.87
2023-04-09T14:24:23.543Z,13.85
2023-04-09T14:26:53.685Z,13.81
2023-04-09T14:29:24.752Z,13.79
2023-04-09T14:31:53.520Z,13.62
2023-04-09T14:34:31.392Z,13.80
2023-04-09T14:36:58.805Z,13.61
2023-04-09T14:39:27.647Z,13.75
2023-04-09T14:41:57.456Z,13.75
2023-04-09T14:44:27.478Z,13.62
2023-04-09T14:47:08.117Z,13.71
2023-04-09T14:49:54.044Z,13.55
2023-04-09T14:52:25.988Z,13.66
2023-04-09T14:55:13.264Z,13.56
2023-04-09T14:57:42.536Z,13.34
2023-04-09T15:00:12.282Z,13.52
2023-04-09T15:02:40.190Z,13.64
2023-04-09T15:05:08.837Z,13.76
2023-04-09T15:07:39.682Z,13.51
2023-04-09T15:10:13.378Z,13.63
2023-04-09T15:12:43.569Z,13.60
2023-04-09T15:15:18.365Z,13.60
2023-04-09T15:17:49.828Z,13.54
2023-04-09T15:20:18.504Z,13.50
2023-04-09T15:23:06.013Z,13.43
2023-04-09T15:25:40.884Z,13.43
2023-04-09T15:28:15.546Z,13.59
2023-04-09T15:30:46.431Z,13.65
2023-04-09T15:33:14.424Z,13.57
2023-04-09T15:35:43.560Z,13.51
2023-04-09T15:38:15.619Z,13.43
2023-04-09T15:41:01.265Z,13.40
2023-04-09T15:43:28.620Z,13.28
2023-04-09T15:45:58.588Z,13.28
2023-04-09T15:48:31.174Z,13.19
2023-04-09T15:51:17.954Z,13.26
2023-04-09T15:53:47.498Z,13.34
2023-04-09T15:56:16.112Z,13.49
2023-04-09T15:58:43.537Z,13.38
2023-04-09T16:01:12.922Z,13.58
2023-04-09T16:03:52.020Z,13.30
2023-04-09T16:06:19.911Z,13.36
2023-04-09T16:09:05.506Z,13.41
2023-04-09T16:11:37.575Z,13.36
2023-04-09T16:14:10.627Z,13.56
2023-04-09T16:16:45.863Z,13.24
2023-04-09T16:19:14.879Z,13.62
2023-04-09T16:21:44.802Z,13.50
2023-04-09T16:24:14.919Z,13.50
2023-04-09T16:26:43.916Z,13.55
2023-04-09T16:29:13.335Z,13.44
2023-04-09T16:31:44.894Z,13.45
2023-04-09T16:34:12.367Z,13.34
2023-04-09T16:36:47.016Z,13.33
2023-04-09T16:39:15.620Z,13.33
2023-04-09T16:41:47.194Z,13.21
2023-04-09T16:44:19.411Z,13.36
2023-04-09T16:46:49.211Z,13.44
2023-04-09T16:49:20.855Z,13.45
2023-04-09T16:51:51.909Z,13.33
2023-04-09T16:54:23.033Z,13.29
2023-04-09T16:56:53.440Z,13.29
2023-04-09T16:59:21.215Z,13.08
2023-04-09T17:01:49.409Z,12.84
2023-04-09T17:04:18.010Z,13.04
2023-04-09T17:06:45.994Z,12.86
2023-04-09T17:09:14.511Z,13.01
2023-04-09T17:11:46.251Z,12.78
2023-04-09T17:14:16.634Z,12.93
2023-04-09T17:16:45.278Z,12.98
2023-04-09T17:19:13.934Z,13.03
2023-04-09T17:21:42.386Z,12.93
2023-04-09T17:24:09.956Z,13.06
2023-04-09T17:26:37.754Z,13.09
2023-04-09T17:29:07.087Z,12.90
2023-04-09T17:31:35.136Z,12.95
2023-04-09T17:34:19.645Z,12.70
2023-04-09T17:36:49.834Z,12.56
2023-04-09T17:39:25.287Z,12.71
2023-04-09T17:41:58.237Z,12.79
2023-04-09T17:44:35.136Z,12.82
2023-04-09T17:47:07.583Z,12.75
2023-04-09T17:49:35.171Z,12.84
2023-04-09T17:52:07.613Z,12.93
2023-04-09T17:54:35.406Z,12.96
2023-04-09T17:57:04.355Z,12.84
2023-04-09T17:59:34.766Z,12.88
2023-04-09T18:02:16.581Z,12.79
2023-04-09T18:04:44.471Z,12.75
2023-04-09T18:07:12.215Z,12.79
2023-04-09T18:09:42.076Z,12.67
2023-04-09T18:12:09.545Z,12.69
2023-04-09T18:14:49.277Z,12.66
2023-04-09T18:17:27.548Z,12.60
2023-04-09T18:19:58.272Z,12.56
2023-04-09T18:22:27.548Z,12.43
2023-04-09T18:25:00.231Z,12.53
2023-04-09T18:27:29.626Z,12.56
2023-04-09T18:29:59.452Z,12.66
2023-04-09T18:32:26.995Z,12.51
2023-04-09T18:34:54.450Z,12.57
2023-04-09T18:37:22.421Z,12.47
2023-04-09T18:39:54.646Z,12.28
2023-04-09T18:42:22.016Z,12.33
2023-04-09T18:44:50.136Z,12.29
2023-04-09T18:47:18.518Z,12.20
2023-04-09T18:49:46.599Z,12.30
2023-04-09T18:52:16.963Z,12.43
2023-04-09T18:54:51.032Z,12.36
2023-04-09T18:57:18.961Z,12.23
2023-04-09T18:59:46.706Z,12.29
2023-04-09T19:02:14.254Z,12.29
2023-04-09T19:04:42.176Z,12.32
2023-04-09T19:07:09.746Z,12.26
2023-04-09T19:09:37.536Z,12.27
2023-04-09T19:12:06.705Z,12.17
2023-04-09T19:14:36.491Z,12.32
2023-04-09T19:17:03.879Z,12.33
2023-04-09T19:19:34.031Z,12.12
2023-04-09T19:22:02.296Z,12.06
2023-04-09T19:24:29.947Z,12.14
2023-04-09T19:26:58.040Z,12.07
2023-04-09T19:29:25.633Z,12.13
2023-04-09T19:31:53.216Z,12.26
2023-04-09T19:34:21.041Z,12.19
2023-04-09T19:36:48.524Z,12.07
2023-04-09T19:39:16.495Z,12.16
2023-04-09T19:41:44.167Z,12.10
2023-04-09T19:44:13.397Z,12.02
2023-04-09T19:46:41.094Z,12.01
2023-04-09T19:49:08.603Z,12.14
2023-04-09T19:51:37.491Z,12.05
2023-04-09T19:54:06.466Z,12.15
2023-04-09T19:56:39.877Z,12.15
2023-04-09T19:59:07.588Z,11.98
2023-04-09T20:01:35.248Z,11.97
2023-04-09T20:04:02.986Z,12.00
2023-04-09T20:06:30.869Z,12.02
2023-04-09T20:08:58.202Z,12.01
2023-04-09T20:11:27.311Z,11.88
2023-04-09T20:13:55.122Z,12.02
2023-04-09T20:16:23.844Z,11.84
2023-04-09T20:18:51.420Z,12.01
2023-04-09T20:21:21.138Z,11.93
2023-04-09T20:23:48.647Z,12.06
2023-04-09T20:26:19.700Z,11.98
2023-04-09T20:28:47.820Z,11.97
2023-04-09T20:31:15.320Z,12.02
2023-04-09T20:33:42.729Z,11.76
2023-04-09T20:36:19.913Z,11.88
2023-04-09T20:38:54.607Z,11.90
2023-04-09T20:41:22.757Z,11.93
2023-04-09T20:43:50.481Z,11.69
2023-04-09T20:46:21.496Z,11.83
2023-04-09T20:48:48.899Z,11.86
2023-04-09T20:51:16.273Z,11.94
2023-04-09T20:53:45.547Z,11.77
2023-04-09T20:56:13.301Z,11.86
2023-04-09T20:58:42.055Z,11.73
2023-04-09T21:01:10.038Z,11.70
2023-04-09T21:03:38.239Z,11.78
2023-04-09T21:06:08.420Z,11.68
2023-04-09T21:08:37.374Z,11.66
2023-04-09T21:11:05.065Z,11.65
2023-04-09T21:13:40.349Z,11.85
2023-04-09T21:16:15.060Z,11.64
2023-04-09T21:18:42.486Z,11.63
2023-04-09T21:21:10.394Z,11.63
2023-04-09T21:23:38.013Z,11.61
2023-04-09T21:26:05.611Z,11.56
2023-04-09T21:28:33.149Z,11.68
2023-04-09T21:31:00.750Z,11.46
2023-04-09T21:33:29.990Z,11.51
2023-04-09T21:35:59.646Z,11.50
2023-04-09T21:38:27.544Z,11.46
2023-04-09T21:40:54.970Z,11.39
2023-04-09T21:43:22.689Z,11.51
2023-04-09T21:45:50.223Z,11.44
2023-04-09T21:48:18.220Z,11.48
2023-04-09T21:50:46.512Z,11.43
2023-04-09T21:53:15.710Z,11.47
2023-04-09T21:55:43.322Z,11.35
2023-04-09T21:58:12.037Z,11.38
2023-04-09T22:00:39.828Z,11.36
2023-04-09T22:03:07.611Z,11.41
2023-04-09T22:05:35.999Z,11.19
2023-04-09T22:08:03.788Z,11.12
2023-04-09T22:10:31.653Z,11.22
2023-04-09T22:13:09.988Z,11.23
2023-04-09T22:15:37.828Z,11.19
2023-04-09T22:18:05.282Z,11.06
2023-04-09T22:20:36.298Z,11.05
2023-04-09T22:23:04.909Z,10.95
2023-04-09T22:25:35.078Z,10.93
2023-04-09T22:28:05.936Z,10.93
2023-04-09T22:30:33.626Z,10.93
2023-04-09T22:33:06.429Z,11.02
2023-04-09T22:35:34.966Z,10.92
2023-04-09T22:38:03.377Z,10.82
2023-04-09T22:40:30.991Z,10.82
2023-04-09T22:42:58.380Z,10.72
2023-04-09T22:45:27.926Z,10.85
2023-04-09T22:47:55.860Z,10.91
2023-04-09T22:50:26.397Z,10.96
2023-04-09T22:52:54.700Z,10.94
2023-04-09T22:55:23.515Z,10.99
2023-04-09T22:57:51.445Z,10.92
2023-04-09T23:00:19.213Z,10.95
2023-04-09T23:02:47.597Z,10.89
2023-04-09T23:05:15.616Z,10.91
2023-04-09T23:07:45.136Z,11.03
2023-04-09T23:10:16.216Z,11.06
2023-04-09T23:12:58.894Z,10.96
2023-04-09T23:15:27.679Z,11.00
2023-04-09T23:17:55.741Z,10.67
2023-04-09T23:20:23.721Z,10.82
2023-04-09T23:22:51.312Z,10.81
2023-04-09T23:25:25.797Z,10.84
2023-04-09T23:27:53.341Z,10.84
2023-04-09T23:30:21.928Z,10.86
2023-04-09T23:32:53.843Z,10.88
2023-04-09T23:35:22.493Z,10.77
2023-04-09T23:37:56.155Z,10.91
2023-04-09T23:40:23.831Z,10.88
2023-04-09T23:42:51.323Z,10.79
2023-04-09T23:45:23.321Z,10.72
2023-04-09T23:47:51.050Z,10.67
2023-04-09T23:50:24.616Z,10.72
2023-04-09T23:52:52.157Z,10.78
2023-04-09T23:55:19.981Z,10.72
2023-04-09T23:57:48.067Z,10.65
